Time;durP1;ratioP1;P1;durP2;ratioP2;P2;SDS_P1;SDS_P2;PMS_P1;PMS_P2;Temp;Humidity;BMP_temperature;BMP_pressure;BME280_temperature;BME280_humidity;BME280_pressure;Samples;Min_cycle;Max_cycle;Signal;HPM_P1;HPM_P2
2024/01/05 00:01:36;;;;;;;7.60;2.20;;;;;;;-4.12;100.00;98698.59;109028;1259;73516;-62
2024/01/05 00:04:24;;;;;;;7.40;2.40;;;;;;;-4.07;100.00;98702.39;109148;1259;68853;-60
2024/01/05 00:07:12;;;;;;;6.60;1.90;;;;;;;-4.04;100.00;98704.69;109029;1258;71487;-61
2024/01/05 00:10:00;;;;;;;8.20;1.80;;;;;;;-4.05;100.00;98714.09;109090;1260;58599;-61
2024/01/05 00:12:48;;;;;;;6.40;2.00;;;;;;;-4.07;100.00;98716.08;109040;1259;59054;-60
2024/01/05 00:15:36;;;;;;;6.20;1.70;;;;;;;-4.12;100.00;98718.83;108237;1260;1002199;-60
2024/01/05 00:18:24;;;;;;;7.00;2.00;;;;;;;-4.14;100.00;98722.05;109094;1260;69066;-60
2024/01/05 00:21:25;;;;;;;8.30;2.00;;;;;;;-4.15;100.00;98727.09;109137;1260;71093;-60
2024/01/05 00:24:13;;;;;;;8.30;2.00;;;;;;;-4.14;100.00;98728.27;109142;1259;58414;-60
2024/01/05 00:27:02;;;;;;;6.90;1.90;;;;;;;-4.14;100.00;98728.10;108254;1259;1002350;-60
2024/01/05 00:29:50;;;;;;;6.10;1.90;;;;;;;-4.14;100.00;98727.43;109066;1257;73577;-60
2024/01/05 00:32:38;;;;;;;6.70;2.00;;;;;;;-4.16;100.00;98727.66;108382;1257;1002344;-60
2024/01/05 00:35:25;;;;;;;6.10;1.50;;;;;;;-4.18;100.00;98731.75;108992;1259;72660;-61
2024/01/05 00:38:13;;;;;;;5.30;1.50;;;;;;;-4.21;100.00;98737.05;109101;1259;58565;-59
2024/01/05 00:41:05;;;;;;;5.80;1.70;;;;;;;-4.19;100.00;98743.05;109088;1259;60333;-60
2024/01/05 00:43:52;;;;;;;6.90;1.50;;;;;;;-4.20;100.00;98747.05;108296;1259;1002782;-60
2024/01/05 00:46:41;;;;;;;6.10;1.80;;;;;;;-4.21;100.00;98752.80;109131;1258;67660;-61
2024/01/05 00:49:29;;;;;;;5.10;1.50;;;;;;;-4.21;100.00;98752.48;108269;1259;1002386;-62
2024/01/05 00:52:17;;;;;;;7.90;1.50;;;;;;;-4.23;100.00;98753.77;109042;1257;58242;-60
2024/01/05 00:55:05;;;;;;;5.40;1.30;;;;;;;-4.24;100.00;98750.19;108931;1257;61338;-61
2024/01/05 00:57:53;;;;;;;6.30;1.60;;;;;;;-4.26;100.00;98754.20;108368;1257;1002366;-60
2024/01/05 01:00:41;;;;;;;4.80;1.40;;;;;;;-4.25;100.00;98748.31;109031;1257;66637;-59
2024/01/05 01:03:29;;;;;;;5.00;1.40;;;;;;;-4.24;100.00;98754.48;109152;1259;73533;-61
2024/01/05 01:06:18;;;;;;;4.70;1.10;;;;;;;-4.27;100.00;98757.53;108982;1260;58115;-61
2024/01/05 01:09:05;;;;;;;5.20;1.40;;;;;;;-4.30;100.00;98764.92;109007;1258;60155;-61
2024/01/05 01:11:53;;;;;;;5.00;1.40;;;;;;;-4.31;100.00;98763.77;109111;1259;75011;-60
2024/01/05 01:14:41;;;;;;;5.50;1.40;;;;;;;-4.32;100.00;98764.48;109048;1258;68266;-60
2024/01/05 01:17:30;;;;;;;7.70;1.50;;;;;;;-4.33;100.00;98758.98;109123;1258;72895;-63
2024/01/05 01:20:17;;;;;;;6.90;1.40;;;;;;;-4.35;100.00;98745.88;109110;1259;59520;-60
2024/01/05 01:23:05;;;;;;;5.00;1.30;;;;;;;-4.39;100.00;98753.34;109005;1257;61433;-61
2024/01/05 01:25:52;;;;;;;5.70;1.50;;;;;;;-4.44;100.00;98760.09;108349;1258;1002535;-60
2024/01/05 01:28:40;;;;;;;6.80;1.60;;;;;;;-4.45;100.00;98759.77;108376;1257;1002838;-60
2024/01/05 01:31:28;;;;;;;6.40;1.40;;;;;;;-4.49;100.00;98763.20;108258;1259;1002485;-59
2024/01/05 01:34:16;;;;;;;6.60;1.60;;;;;;;-4.53;100.00;98770.09;109145;1258;58147;-61
2024/01/05 01:37:04;;;;;;;5.50;1.60;;;;;;;-4.58;100.00;98766.13;108388;1259;1002338;-59
2024/01/05 01:39:52;;;;;;;7.20;1.50;;;;;;;-4.63;100.00;98761.82;108280;1258;1002391;-60
2024/01/05 01:42:44;;;;;;;6.30;1.50;;;;;;;-4.68;100.00;98760.42;109028;1259;67717;-60
2024/01/05 01:45:32;;;;;;;7.50;1.70;;;;;;;-4.71;100.00;98766.27;108981;1258;74090;-60
2024/01/05 01:48:20;;;;;;;6.20;1.40;;;;;;;-4.71;100.00;98773.17;109089;1257;58085;-60
2024/01/05 01:51:10;;;;;;;5.00;1.30;;;;;;;-4.71;100.00;98776.82;108988;1259;60119;-61
2024/01/05 01:54:04;;;;;;;7.20;1.70;;;;;;;-4.70;100.00;98782.51;108876;1257;73633;-61
2024/01/05 01:56:53;;;;;;;5.30;1.60;;;;;;;-4.69;100.00;98788.02;108285;1259;1002987;-61
2024/01/05 01:59:40;;;;;;;4.60;1.20;;;;;;;-4.70;100.00;98796.16;109030;1258;72623;-60
2024/01/05 02:02:30;;;;;;;5.20;1.40;;;;;;;-4.70;100.00;98794.63;109078;1257;58140;-61
2024/01/05 02:05:17;;;;;;;6.30;1.50;;;;;;;-4.69;100.00;98799.27;109099;1258;61294;-61
2024/01/05 02:08:05;;;;;;;5.80;1.50;;;;;;;-4.67;100.00;98798.14;109082;1258;73707;-61
2024/01/05 02:10:53;;;;;;;4.80;1.30;;;;;;;-4.63;100.00;98800.94;109153;1257;65628;-60
2024/01/05 02:13:41;;;;;;;8.20;1.40;;;;;;;-4.63;100.00;98806.30;109088;1258;73653;-61
2024/01/05 02:16:29;;;;;;;6.90;1.30;;;;;;;-4.65;100.00;98808.27;109090;1259;58360;-59
2024/01/05 02:19:16;;;;;;;6.10;1.50;;;;;;;-4.64;100.00;98811.70;109055;1257;59029;-60
2024/01/05 02:22:04;;;;;;;5.20;1.10;;;;;;;-4.64;100.00;98810.84;109133;1258;74159;-61
2024/01/05 02:24:52;;;;;;;6.40;1.50;;;;;;;-4.65;100.00;98815.04;109050;1258;66475;-60
2024/01/05 02:27:40;;;;;;;5.80;1.40;;;;;;;-4.63;100.00;98817.73;109120;1258;72357;-59
2024/01/05 02:30:28;;;;;;;7.10;1.60;;;;;;;-4.61;100.00;98816.26;109108;1259;58070;-60
2024/01/05 02:33:16;;;;;;;5.10;1.50;;;;;;;-4.60;100.00;98819.17;109046;1257;59990;-60
2024/01/05 02:36:05;;;;;;;6.80;1.50;;;;;;;-4.60;100.00;98821.10;109131;1259;74565;-60
2024/01/05 02:38:53;;;;;;;5.30;1.40;;;;;;;-4.61;100.00;98827.52;109010;1259;67892;-60
2024/01/05 02:41:40;;;;;;;5.90;1.40;;;;;;;-4.61;100.00;98825.11;109030;1260;71276;-59
2024/01/05 02:44:28;;;;;;;6.30;1.80;;;;;;;-4.61;100.00;98824.76;109118;1257;58044;-60
2024/01/05 02:47:15;;;;;;;6.20;1.40;;;;;;;-4.59;100.00;98824.52;109106;1258;61311;-61
2024/01/05 02:50:04;;;;;;;5.50;1.50;;;;;;;-4.54;100.00;98829.68;109122;1259;74526;-61
2024/01/05 02:52:51;;;;;;;4.50;1.20;;;;;;;-4.50;100.00;98834.08;109149;1257;67895;-60
2024/01/05 02:55:39;;;;;;;5.50;1.50;;;;;;;-4.49;100.00;98833.49;109083;1258;72717;-62
2024/01/05 02:58:27;;;;;;;7.00;1.70;;;;;;;-4.47;100.00;98834.12;109058;1258;58139;-60
2024/01/05 03:01:18;;;;;;;6.00;1.30;;;;;;;-4.43;100.00;98835.21;109103;1260;59014;-61
2024/01/05 03:04:07;;;;;;;5.60;1.10;;;;;;;-4.40;100.00;98829.23;109085;1259;73938;-60
2024/01/05 03:06:55;;;;;;;5.60;1.50;;;;;;;-4.39;100.00;98832.27;108277;1259;1002142;-61
2024/01/05 03:09:43;;;;;;;5.60;1.30;;;;;;;-4.38;100.00;98833.12;108237;1259;1002516;-59
2024/01/05 03:12:31;;;;;;;4.70;1.40;;;;;;;-4.36;100.00;98835.46;109084;1258;59382;-61
2024/01/05 03:15:19;;;;;;;5.80;1.40;;;;;;;-4.32;100.00;98833.08;108996;1260;60323;-61
2024/01/05 03:18:06;;;;;;;4.40;1.20;;;;;;;-4.29;100.00;98832.09;108278;1258;1002084;-61
2024/01/05 03:20:54;;;;;;;4.40;1.00;;;;;;;-4.28;100.00;98825.30;108982;1260;69185;-61
2024/01/05 03:23:42;;;;;;;4.00;1.10;;;;;;;-4.26;100.00;98828.89;109036;1259;72427;-60
2024/01/05 03:26:29;;;;;;;5.60;1.00;;;;;;;-4.27;100.00;98827.16;109128;1258;58153;-61
2024/01/05 03:29:17;;;;;;;4.60;1.00;;;;;;;-4.30;100.00;98827.80;109151;1260;60371;-60
2024/01/05 03:32:07;;;;;;;4.30;1.10;;;;;;;-4.26;100.00;98832.34;109129;1259;74591;-60
2024/01/05 03:34:55;;;;;;;5.20;1.40;;;;;;;-4.24;100.00;98835.40;109105;1258;67736;-62
2024/01/05 03:37:42;;;;;;;4.80;1.20;;;;;;;-4.22;100.00;98842.23;109154;1259;71106;-60
2024/01/05 03:40:30;;;;;;;4.60;1.10;;;;;;;-4.21;100.00;98846.19;109135;1259;58139;-59
2024/01/05 03:43:18;;;;;;;7.90;1.40;;;;;;;-4.23;100.00;98851.77;109136;1259;60441;-62
2024/01/05 03:46:13;;;;;;;5.70;1.20;;;;;;;-4.24;100.00;98859.13;109098;1259;74894;-61
2024/01/05 03:49:00;;;;;;;25.50;4.90;;;;;;;-4.24;100.00;98864.16;109094;1257;66843;-60
2024/01/05 03:51:48;;;;;;;65.20;13.40;;;;;;;-4.24;100.00;98860.87;109076;1257;72433;-60
2024/01/05 03:54:35;;;;;;;64.90;15.80;;;;;;;-4.25;100.00;98862.09;109137;1257;59993;-60
2024/01/05 03:57:23;;;;;;;42.40;12.20;;;;;;;-4.26;100.00;98859.89;108997;1257;58668;-61
2024/01/05 04:00:12;;;;;;;24.50;8.40;;;;;;;-4.30;100.00;98861.89;109033;1257;74831;-63
2024/01/05 04:02:59;;;;;;;13.50;3.50;;;;;;;-4.35;100.00;98864.33;109151;1256;66652;-61
2024/01/05 04:05:48;;;;;;;17.00;5.70;;;;;;;-4.45;100.00;98855.17;109065;1257;73670;-62
2024/01/05 04:08:38;;;;;;;29.60;10.00;;;;;;;-4.46;100.00;98864.58;108902;1257;283693;-62
2024/01/05 04:11:30;;;;;;;35.30;11.50;;;;;;;-4.51;100.00;98863.38;109148;1256;60070;-61
2024/01/05 04:14:17;;;;;;;37.40;11.00;;;;;;;-4.56;100.00;98859.20;108375;1257;1002346;-61
2024/01/05 04:17:05;;;;;;;35.90;9.10;;;;;;;-4.62;100.00;98856.65;108317;1259;1002209;-62
2024/01/05 04:19:52;;;;;;;28.60;9.00;;;;;;;-4.59;100.00;98869.00;107561;1259;1002332;-61
2024/01/05 04:22:40;;;;;;;21.10;7.30;;;;;;;-4.59;100.00;98870.39;109069;1259;58112;-61
2024/01/05 04:25:28;;;;;;;21.00;5.60;;;;;;;-4.57;100.00;98869.65;108356;1259;1002483;-62
2024/01/05 04:28:16;;;;;;;17.20;5.30;;;;;;;-4.58;100.00;98876.43;109083;1258;73661;-61
2024/01/05 04:31:03;;;;;;;13.70;4.10;;;;;;;-4.60;100.00;98873.88;109127;1260;69181;-60
2024/01/05 04:33:53;;;;;;;10.90;3.00;;;;;;;-4.62;100.00;98877.27;109073;1259;71734;-60
2024/01/05 04:36:41;;;;;;;7.20;2.00;;;;;;;-4.65;100.00;98881.35;108930;1260;60318;-62
2024/01/05 04:39:29;;;;;;;6.80;1.60;;;;;;;-4.65;100.00;98888.96;109029;1258;59044;-63
2024/01/05 04:42:17;;;;;;;4.20;1.10;;;;;;;-4.63;100.00;98890.95;109046;1259;74578;-61
2024/01/05 04:45:07;;;;;;;5.30;1.30;;;;;;;-4.63;100.00;98898.91;109098;1257;68281;-60
2024/01/05 04:47:55;;;;;;;4.30;1.00;;;;;;;-4.65;100.00;98898.29;109008;1259;71266;-61
2024/01/05 04:50:43;;;;;;;5.40;1.50;;;;;;;-4.65;100.00;98899.15;108901;1259;58235;-60
2024/01/05 04:53:30;;;;;;;7.20;1.80;;;;;;;-4.65;100.00;98898.65;108960;1260;59021;-60
2024/01/05 04:56:18;;;;;;;7.40;1.70;;;;;;;-4.63;100.00;98904.95;109051;1260;74634;-60
2024/01/05 04:59:07;;;;;;;6.40;1.50;;;;;;;-4.63;100.00;98897.54;109086;1257;67771;-61
2024/01/05 05:01:54;;;;;;;4.70;1.20;;;;;;;-4.52;100.00;98906.70;109013;1259;72753;-61
2024/01/05 05:04:42;;;;;;;4.20;1.10;;;;;;;-4.49;100.00;98913.48;108771;1263;58253;-62
2024/01/05 05:07:32;;;;;;;5.40;1.40;;;;;;;-4.47;100.00;98912.20;108778;1263;60324;-61
2024/01/05 05:10:23;;;;;;;7.10;2.00;;;;;;;-4.46;100.00;98912.69;108719;1262;74733;-61
2024/01/05 05:13:11;;;;;;;6.00;1.30;;;;;;;-4.46;100.00;98920.67;108715;1263;67947;-61
2024/01/05 05:15:59;;;;;;;5.90;1.50;;;;;;;-4.46;100.00;98927.75;108561;1263;73475;-61
2024/01/05 05:18:48;;;;;;;6.10;1.40;;;;;;;-4.44;100.00;98932.91;108785;1262;59047;-61
2024/01/05 05:21:36;;;;;;;5.90;1.70;;;;;;;-4.42;100.00;98938.41;108837;1263;58796;-62
2024/01/05 05:24:24;;;;;;;6.10;1.80;;;;;;;-4.42;100.00;98941.34;108781;1262;74187;-61
2024/01/05 05:27:12;;;;;;;5.80;1.70;;;;;;;-4.41;100.00;98943.73;107908;1263;1002686;-61
2024/01/05 05:30:05;;;;;;;6.20;1.60;;;;;;;-4.40;100.00;98947.67;107935;1262;1002904;-61
2024/01/05 05:32:53;;;;;;;9.70;1.70;;;;;;;-4.39;100.00;98951.98;108759;1263;58128;-62
2024/01/05 05:35:41;;;;;;;7.70;1.70;;;;;;;-4.36;100.00;98958.10;108829;1260;58921;-61
2024/01/05 05:38:29;;;;;;;5.90;1.40;;;;;;;-4.32;100.00;98958.10;108191;1258;1002101;-62
2024/01/05 05:41:16;;;;;;;6.00;1.50;;;;;;;-4.30;100.00;98964.82;108996;1260;68680;-61
2024/01/05 05:44:04;;;;;;;6.30;1.60;;;;;;;-4.32;100.00;98969.72;109012;1259;71512;-64
2024/01/05 05:46:52;;;;;;;6.40;1.50;;;;;;;-4.32;100.00;98969.57;108209;1257;1002882;-61
2024/01/05 05:49:39;;;;;;;5.50;1.30;;;;;;;-4.32;100.00;98974.75;108974;1259;58833;-61
2024/01/05 05:52:27;;;;;;;6.80;1.70;;;;;;;-4.35;100.00;98973.63;109006;1259;72936;-61
2024/01/05 05:55:18;;;;;;;6.70;1.90;;;;;;;-4.36;100.00;98976.63;108355;1260;1002303;-60
2024/01/05 05:58:07;;;;;;;7.50;2.20;;;;;;;-4.35;100.00;98976.73;109080;1257;73565;-65
2024/01/05 06:00:55;;;;;;;6.50;1.60;;;;;;;-4.33;100.00;98974.27;108336;1260;1002385;-62
2024/01/05 06:03:43;;;;;;;6.80;1.60;;;;;;;-4.33;100.00;98977.05;108343;1257;1002154;-60
2024/01/05 06:06:31;;;;;;;6.30;1.90;;;;;;;-4.36;100.00;98984.42;109107;1260;73563;-63
2024/01/05 06:09:19;;;;;;;7.20;1.90;;;;;;;-4.40;100.00;98989.93;109124;1259;66627;-61
2024/01/05 06:12:07;;;;;;;6.80;1.80;;;;;;;-4.44;100.00;98991.25;108972;1258;71390;-61
2024/01/05 06:14:54;;;;;;;6.00;1.80;;;;;;;-4.48;100.00;98996.73;108966;1260;58134;-62
2024/01/05 06:17:42;;;;;;;6.10;1.80;;;;;;;-4.47;100.00;98996.57;109078;1260;60330;-63
2024/01/05 06:20:30;;;;;;;6.90;1.80;;;;;;;-4.48;100.00;98998.30;108332;1258;1003244;-62
2024/01/05 06:23:18;;;;;;;6.40;1.60;;;;;;;-4.47;100.00;99000.70;109107;1260;66542;-62
2024/01/05 06:26:06;;;;;;;6.50;1.90;;;;;;;-4.50;100.00;99005.14;108991;1258;70051;-62
2024/01/05 06:28:53;;;;;;;6.10;1.50;;;;;;;-4.54;100.00;99005.09;108192;1257;1002247;-64
2024/01/05 06:31:41;;;;;;;7.30;1.70;;;;;;;-4.59;100.00;99006.47;108949;1257;60143;-61
2024/01/05 06:34:29;;;;;;;6.30;1.80;;;;;;;-4.64;100.00;99008.36;109078;1259;74637;-64
2024/01/05 06:37:17;;;;;;;7.90;2.50;;;;;;;-4.66;100.00;99013.27;108972;1260;69071;-59
2024/01/05 06:40:06;;;;;;;6.30;2.00;;;;;;;-4.65;100.00;99013.39;109023;1259;70165;-61
2024/01/05 06:42:54;;;;;;;7.90;2.00;;;;;;;-4.65;100.00;99015.66;108946;1259;58122;-61
2024/01/05 06:45:42;;;;;;;6.30;1.70;;;;;;;-4.65;100.00;99015.33;108915;1260;59128;-62
2024/01/05 06:48:30;;;;;;;7.40;2.00;;;;;;;-4.66;100.00;99017.95;109030;1259;74938;-62
2024/01/05 06:51:18;;;;;;;5.10;1.60;;;;;;;-4.70;100.00;99021.18;108652;1263;66882;-63
2024/01/05 06:54:07;;;;;;;6.10;1.70;;;;;;;-4.75;100.00;99027.23;107969;1263;1002644;-61
2024/01/05 06:56:56;;;;;;;5.90;1.80;;;;;;;-4.80;100.00;99029.63;107835;1264;1002377;-63
2024/01/05 06:59:44;;;;;;;6.40;1.60;;;;;;;-4.81;100.00;99030.36;108663;1264;60198;-63
2024/01/05 07:02:32;;;;;;;6.40;1.50;;;;;;;-4.82;100.00;99034.89;108743;1264;74624;-60
2024/01/05 07:05:19;;;;;;;6.20;1.70;;;;;;;-4.82;100.00;99038.86;108635;1263;68657;-63
2024/01/05 07:08:07;;;;;;;7.00;1.70;;;;;;;-4.82;100.00;99042.34;107955;1264;1002680;-59
2024/01/05 07:10:56;;;;;;;5.90;1.60;;;;;;;-4.82;100.00;99044.21;108710;1264;58274;-60
2024/01/05 07:13:43;;;;;;;6.80;1.80;;;;;;;-4.83;100.00;99042.35;108721;1263;60717;-59
2024/01/05 07:16:31;;;;;;;7.00;2.30;;;;;;;-4.80;100.00;99046.58;108724;1264;73837;-61
2024/01/05 07:19:19;;;;;;;6.30;2.10;;;;;;;-4.75;100.00;99048.70;108654;1264;66756;-61
2024/01/05 07:22:07;;;;;;;6.80;2.40;;;;;;;-4.70;100.00;99052.35;108840;1259;71606;-62
2024/01/05 07:24:55;;;;;;;7.50;2.70;;;;;;;-4.66;100.00;99052.56;108816;1259;58225;-63
2024/01/05 07:27:43;;;;;;;8.40;2.40;;;;;;;-4.62;100.00;99053.13;108986;1259;58768;-63
2024/01/05 07:30:30;;;;;;;7.70;2.50;;;;;;;-4.60;100.00;99051.86;109007;1260;72276;-62
2024/01/05 07:33:18;;;;;;;7.60;2.30;;;;;;;-4.59;100.00;99048.20;108956;1260;67663;-62
2024/01/05 07:36:06;;;;;;;8.10;2.60;;;;;;;-4.56;100.00;99052.06;108932;1260;73468;-64
2024/01/05 07:38:59;;;;;;;9.00;2.10;;;;;;;-4.52;100.00;99050.08;108874;1260;58097;-61
2024/01/05 07:41:47;;;;;;;7.80;2.00;;;;;;;-4.52;100.00;99050.91;108986;1259;60188;-63
2024/01/05 07:44:36;;;;;;;7.30;2.20;;;;;;;-4.51;100.00;99055.90;109057;1259;71623;-62
2024/01/05 07:47:24;;;;;;;8.70;2.30;;;;;;;-4.47;100.00;99064.95;108940;1260;67530;-60
2024/01/05 07:50:12;;;;;;;7.60;2.40;;;;;;;-4.37;100.00;99067.95;109005;1260;72376;-61
2024/01/05 07:53:00;;;;;;;9.60;2.30;;;;;;;-4.25;100.00;99065.46;108991;1259;58213;-61
2024/01/05 07:55:48;;;;;;;6.20;1.70;;;;;;;-4.12;100.00;99064.85;109039;1260;59983;-60
2024/01/05 07:58:35;;;;;;;6.80;1.60;;;;;;;-4.02;100.00;99062.95;108971;1259;73872;-60
2024/01/05 08:01:23;;;;;;;7.40;1.80;;;;;;;-3.99;100.00;99069.44;108934;1260;68627;-61
2024/01/05 08:04:11;;;;;;;7.70;2.30;;;;;;;-3.95;100.00;99073.09;108979;1260;73426;-62
2024/01/05 08:06:59;;;;;;;8.80;2.60;;;;;;;-3.98;100.00;99077.89;108254;1259;1002362;-62
2024/01/05 08:09:52;;;;;;;6.60;2.40;;;;;;;-3.98;100.00;99084.13;108978;1259;61147;-62
2024/01/05 08:12:40;;;;;;;7.10;1.90;;;;;;;-3.98;100.00;99088.80;109023;1260;72277;-62
2024/01/05 08:15:28;;;;;;;7.80;2.00;;;;;;;-3.97;100.00;99087.22;108876;1260;68689;-64
2024/01/05 08:18:16;;;;;;;8.50;2.00;;;;;;;-3.93;100.00;99089.17;108132;1259;1003051;-64
2024/01/05 08:21:04;;;;;;;6.30;1.90;;;;;;;-3.91;100.00;99095.68;109006;1260;58273;-62
2024/01/05 08:23:52;;;;;;;7.30;1.90;;;;;;;-3.89;100.00;99095.77;109100;1260;58173;-62
2024/01/05 08:26:43;;;;;;;9.60;2.30;;;;;;;-3.88;100.00;99100.77;109041;1259;73536;-61
2024/01/05 08:29:30;;;;;;;8.10;2.70;;;;;;;-3.83;100.00;99105.45;109081;1260;66076;-63
2024/01/05 08:32:18;;;;;;;10.10;3.00;;;;;;;-3.74;100.00;99108.11;109047;1259;72617;-62
2024/01/05 08:35:06;;;;;;;10.00;3.00;;;;;;;-3.60;100.00;99111.27;109009;1260;58263;-62
2024/01/05 08:37:55;;;;;;;10.50;3.00;;;;;;;-3.45;100.00;99117.86;108101;1258;1002935;-62
2024/01/05 08:40:45;;;;;;;9.70;3.20;;;;;;;-3.34;100.00;99120.40;108200;1260;1002332;-61
2024/01/05 08:43:33;;;;;;;7.80;2.80;;;;;;;-3.17;99.85;99123.63;109043;1260;68077;-61
2024/01/05 08:46:28;;;;;;;8.70;3.10;;;;;;;-3.05;98.74;99120.23;108946;1259;71084;-61
2024/01/05 08:49:16;;;;;;;9.30;3.10;;;;;;;-3.07;98.63;99128.10;108919;1259;58244;-61
2024/01/05 08:52:04;;;;;;;6.90;2.40;;;;;;;-3.08;98.02;99127.79;108273;1260;1002258;-63
2024/01/05 08:54:52;;;;;;;8.00;2.40;;;;;;;-3.13;97.90;99132.16;108939;1260;72851;-62
2024/01/05 08:57:40;;;;;;;7.80;2.20;;;;;;;-3.18;97.54;99137.70;108864;1260;67611;-65
2024/01/05 09:00:28;;;;;;;8.70;2.40;;;;;;;-3.23;97.44;99141.19;108867;1260;73461;-61
2024/01/05 09:03:16;;;;;;;9.70;2.60;;;;;;;-3.27;97.44;99147.56;108961;1260;59520;-61
2024/01/05 09:06:04;;;;;;;8.60;2.70;;;;;;;-3.26;97.81;99148.56;108890;1262;60052;-62
2024/01/05 09:08:52;;;;;;;8.00;2.70;;;;;;;-3.23;97.64;99150.05;108952;1260;74762;-62
2024/01/05 09:11:40;;;;;;;9.00;2.50;;;;;;;-3.16;97.99;99148.42;108837;1260;66497;-62
2024/01/05 09:14:27;;;;;;;8.00;3.00;;;;;;;-3.07;97.78;99147.58;108103;1260;1002846;-64
2024/01/05 09:17:16;;;;;;;10.10;3.20;;;;;;;-3.04;96.65;99151.27;108937;1260;58205;-63
2024/01/05 09:20:06;;;;;;;8.50;3.30;;;;;;;-2.97;97.04;99149.08;108907;1260;60289;-63
2024/01/05 09:22:54;;;;;;;11.90;3.70;;;;;;;-2.90;95.70;99147.79;109008;1260;73776;-64
2024/01/05 09:25:42;;;;;;;15.10;4.30;;;;;;;-2.73;95.20;99154.29;109022;1260;68918;-62
2024/01/05 09:28:33;;;;;;;11.90;3.50;;;;;;;-1.98;95.71;99151.65;108981;1260;73441;-63
2024/01/05 09:31:20;;;;;;;9.70;3.50;;;;;;;0.58;89.86;99146.09;108737;1260;58993;-62
2024/01/05 09:34:08;;;;;;;7.40;2.70;;;;;;;1.33;82.10;99149.56;108928;1260;61339;-64
2024/01/05 09:36:57;;;;;;;8.20;2.80;;;;;;;0.87;79.61;99160.15;109007;1260;72384;-62
2024/01/05 09:39:45;;;;;;;7.70;2.80;;;;;;;0.42;78.73;99163.86;108907;1260;67750;-62
2024/01/05 09:42:33;;;;;;;8.90;2.70;;;;;;;-0.03;78.54;99159.63;108124;1259;1002445;-61
2024/01/05 09:45:23;;;;;;;8.90;3.00;;;;;;;-0.48;79.01;99155.63;108877;1260;58146;-62
2024/01/05 09:48:11;;;;;;;8.90;2.90;;;;;;;-0.76;81.19;99156.56;108904;1260;60601;-61
2024/01/05 09:51:03;;;;;;;7.90;2.90;;;;;;;-0.87;83.63;99152.02;108901;1259;74555;-60
2024/01/05 09:53:51;;;;;;;8.10;2.70;;;;;;;-0.84;83.86;99152.25;108896;1261;66344;-62
2024/01/05 09:56:40;;;;;;;13.80;3.60;;;;;;;-0.82;83.66;99153.02;108883;1260;73382;-61
2024/01/05 09:59:28;;;;;;;11.00;3.60;;;;;;;-0.80;84.12;99155.54;108900;1259;58113;-63
2024/01/05 10:02:25;;;;;;;12.30;4.20;;;;;;;-0.84;83.63;99151.36;108972;1259;58951;-63
2024/01/05 10:05:13;;;;;;;11.90;3.80;;;;;;;-0.92;83.57;99148.95;108831;1260;73913;-61
2024/01/05 10:08:02;;;;;;;11.20;3.50;;;;;;;-1.04;82.15;99156.78;108928;1260;68846;-61
2024/01/05 10:10:55;;;;;;;11.10;3.70;;;;;;;-1.24;82.02;99161.84;108795;1260;74001;-62
2024/01/05 10:13:54;;;;;;;8.50;3.00;;;;;;;-1.43;82.29;99166.31;108181;1260;1002277;-62
2024/01/05 10:16:43;;;;;;;9.10;3.20;;;;;;;-1.60;81.97;99165.62;108926;1260;60096;-60
2024/01/05 10:19:32;;;;;;;9.60;3.00;;;;;;;-1.77;82.51;99169.65;108912;1260;71245;-62
2024/01/05 10:22:20;;;;;;;11.30;3.70;;;;;;;-1.84;83.96;99173.39;108997;1264;67787;-62
2024/01/05 10:25:15;;;;;;;10.10;3.60;;;;;;;-1.88;85.51;99178.09;108977;1260;73439;-62
2024/01/05 10:28:21;;;;;;;8.80;3.10;;;;;;;-1.96;85.90;99176.34;108867;1260;58509;-61
2024/01/05 10:31:14;;;;;;;9.70;3.50;;;;;;;-2.08;85.44;99178.53;108873;1259;59082;-64
2024/01/05 10:34:02;;;;;;;9.20;3.20;;;;;;;-2.13;86.78;99181.00;108154;1260;1002374;-62
2024/01/05 10:37:02;;;;;;;8.40;2.90;;;;;;;-2.24;86.59;99185.42;108982;1260;68913;-62
2024/01/05 10:39:53;;;;;;;7.80;2.70;;;;;;;-2.30;86.94;99188.10;108766;1260;72195;-64
2024/01/05 10:42:43;;;;;;;7.00;2.40;;;;;;;-2.31;87.06;99194.55;109009;1260;58111;-62
2024/01/05 10:45:32;;;;;;;7.70;2.50;;;;;;;-2.34;86.93;99193.61;108926;1260;61211;-62
2024/01/05 10:48:21;;;;;;;7.50;2.70;;;;;;;-2.37;87.04;99198.64;108104;1259;1002953;-62
2024/01/05 10:51:22;;;;;;;10.20;2.70;;;;;;;-2.33;87.68;99198.64;108857;1260;66681;-62
2024/01/05 10:54:11;;;;;;;8.80;2.70;;;;;;;-2.26;87.70;99202.16;108864;1260;73418;-61
2024/01/05 10:57:00;;;;;;;7.00;2.30;;;;;;;-2.17;87.82;99199.41;108984;1260;58149;-62
2024/01/05 10:59:52;;;;;;;8.00;2.70;;;;;;;-2.14;87.24;99201.73;108964;1260;59915;-63
2024/01/05 11:02:42;;;;;;;9.90;2.90;;;;;;;-2.14;87.37;99197.56;108926;1260;74827;-65
2024/01/05 11:05:31;;;;;;;9.10;3.00;;;;;;;-2.08;86.99;99201.13;108988;1260;66963;-63
2024/01/05 11:08:52;;;;;;;7.10;2.40;;;;;;;-2.05;86.72;99205.38;108999;1260;72435;-63
2024/01/05 11:11:51;;;;;;;9.50;3.00;;;;;;;-2.13;86.54;99207.41;108929;1259;58470;-61
2024/01/05 11:15:11;;;;;;;9.00;2.70;;;;;;;-2.22;86.26;99213.85;108987;1259;60109;-63
2024/01/05 11:18:25;;;;;;;10.40;3.00;;;;;;;-2.31;86.44;99212.98;108872;1259;75031;-61
2024/01/05 11:21:19;;;;;;;9.00;2.50;;;;;;;-2.37;86.46;99213.39;108907;1260;68706;-62
2024/01/05 11:24:07;;;;;;;9.50;2.90;;;;;;;-2.42;86.50;99215.98;108856;1259;72590;-61
2024/01/05 11:26:55;;;;;;;9.10;2.60;;;;;;;-2.49;86.88;99219.91;108146;1260;1002955;-62
2024/01/05 11:29:50;;;;;;;10.50;2.80;;;;;;;-2.56;86.21;99221.56;108158;1261;1002314;-63
2024/01/05 11:32:46;;;;;;;8.00;2.70;;;;;;;-2.65;86.10;99219.30;108973;1260;73636;-63
2024/01/05 11:35:44;;;;;;;8.30;2.50;;;;;;;-2.68;87.15;99222.88;108843;1260;68642;-61
2024/01/05 11:38:32;;;;;;;8.50;2.50;;;;;;;-2.78;86.72;99227.91;108914;1260;72381;-63
2024/01/05 11:41:21;;;;;;;8.70;3.10;;;;;;;-2.84;86.91;99228.16;108887;1260;58083;-64
2024/01/05 11:44:33;;;;;;;7.80;2.60;;;;;;;-2.94;87.23;99223.47;108259;1260;1002432;-62
2024/01/05 11:47:47;;;;;;;7.90;2.80;;;;;;;-2.84;87.11;99233.71;109024;1259;72289;-61
2024/01/05 11:50:37;;;;;;;9.20;3.40;;;;;;;-2.60;87.54;99233.36;108919;1260;68772;-63
2024/01/05 11:53:27;;;;;;;9.90;3.30;;;;;;;-2.46;86.16;99230.41;108911;1260;73967;-63
2024/01/05 11:56:17;;;;;;;11.20;3.60;;;;;;;-2.40;86.57;99231.72;108953;1260;58193;-63
2024/01/05 11:59:05;;;;;;;10.90;4.00;;;;;;;-2.36;86.55;99233.35;109096;1259;61032;-62
2024/01/05 12:01:54;;;;;;;11.20;4.80;;;;;;;-1.54;87.37;99238.61;109042;1259;74624;-61
2024/01/05 12:04:49;;;;;;;10.80;4.60;;;;;;;-0.08;84.17;99224.20;108865;1260;68570;-63
2024/01/05 12:07:37;;;;;;;12.80;5.20;;;;;;;1.15;78.19;99221.46;108964;1259;72786;-62
2024/01/05 12:10:27;;;;;;;12.20;5.00;;;;;;;2.07;74.91;99215.77;108938;1260;58454;-64
2024/01/05 12:13:22;;;;;;;12.40;5.30;;;;;;;2.89;72.60;99216.84;108211;1260;1003036;-64
2024/01/05 12:16:10;;;;;;;16.90;6.10;;;;;;;3.54;68.69;99215.57;108980;1261;72886;-62
2024/01/05 12:18:58;;;;;;;15.90;6.60;;;;;;;3.76;66.35;99221.58;109037;1259;67918;-66
2024/01/05 12:21:51;;;;;;;15.80;6.80;;;;;;;3.90;64.89;99232.96;109011;1258;71460;-63
2024/01/05 12:24:41;;;;;;;14.80;6.00;;;;;;;4.05;62.95;99233.26;108853;1259;58148;-62
2024/01/05 12:27:39;;;;;;;12.80;5.40;;;;;;;4.07;62.28;99231.36;108945;1260;61046;-62
2024/01/05 12:30:27;;;;;;;13.10;5.60;;;;;;;3.46;61.71;99236.38;109003;1259;71585;-62
2024/01/05 12:33:16;;;;;;;12.70;5.80;;;;;;;3.07;63.02;99236.65;108945;1259;68685;-62
2024/01/05 12:36:05;;;;;;;12.80;5.30;;;;;;;3.03;63.30;99237.41;108950;1258;72743;-65
2024/01/05 12:39:26;;;;;;;13.50;5.60;;;;;;;2.95;63.19;99236.13;108954;1258;58139;-66
2024/01/05 12:42:14;;;;;;;13.30;5.60;;;;;;;2.70;63.16;99238.48;108553;1266;59340;-64
2024/01/05 12:45:08;;;;;;;17.60;6.30;;;;;;;2.12;63.52;99235.47;108509;1267;72282;-66
2024/01/05 12:47:55;;;;;;;12.60;5.50;;;;;;;1.51;65.23;99235.29;108439;1266;66560;-65
2024/01/05 12:50:44;;;;;;;14.80;6.10;;;;;;;0.90;66.59;99235.31;108437;1267;71417;-65
2024/01/05 12:53:32;;;;;;;15.50;6.30;;;;;;;0.34;68.46;99238.60;108512;1267;58151;-66
2024/01/05 12:56:20;;;;;;;15.30;6.10;;;;;;;-0.17;70.35;99241.73;108593;1266;58779;-64
2024/01/05 12:59:10;;;;;;;14.10;6.10;;;;;;;-0.60;71.91;99241.24;108556;1266;72117;-63